This is the latest recevied weather packets stored in our database for station/object W6ORV. If no packets are shown the sender has not sent any weather packets the latest 10 day(s).
| Time | Temp. | Humidity | Pressure | Rain* | Wind** | Luminosity | Snow |
|---|---|---|---|---|---|---|---|
| 1778117904 | 23.89° C | 51% | 4300.9 hPa | 0 mm | - | 45 W/m² | - |
| 1778117601 | 23.89° C | 52% | 4301 hPa | 0 mm | - | 117 W/m² | - |
| 1778117299 | 23.89° C | 52% | 4300.8 hPa | 0 mm | - | 125 W/m² | - |
| 1778116995 | 24.44° C | 52% | 4301 hPa | 0 mm | - | 140 W/m² | - |
| 1778116692 | 25° C | 51% | 4300.9 hPa | 0 mm | - | 165 W/m² | - |
| 1778116389 | 25.56° C | 49% | 4300.8 hPa | 0 mm | - | 166 W/m² | - |
| 1778116088 | 26.11° C | 47% | 4300.8 hPa | 0 mm | - | 191 W/m² | - |
| 1778115784 | 25.56° C | 48% | 4300.6 hPa | 0 mm | - | 209 W/m² | - |
| 1778115482 | 25° C | 48% | 4300.9 hPa | 0 mm | - | 236 W/m² | - |
| 1778115178 | 26.11° C | 48% | 4300.7 hPa | 0 mm | - | 251 W/m² | - |
| 1778114875 | 26.11° C | 47% | 4300.9 hPa | 0 mm | - | 260 W/m² | - |
| 1778114572 | 26.67° C | 46% | 4300.7 hPa | 0 mm | - | 252 W/m² | - |
| 1778114268 | 27.78° C | 45% | 4301 hPa | 0 mm | - | 300 W/m² | - |
| 1778113964 | 28.33° C | 38% | 4300.8 hPa | 0 mm | - | 316 W/m² | - |
| 1778113660 | 28.33° C | 37% | 4300.4 hPa | 0 mm | - | 335 W/m² | - |
| 1778113356 | 27.78° C | 38% | 4300.5 hPa | 0 mm | - | 363 W/m² | - |
| 1778113053 | 27.22° C | 39% | 4300.5 hPa | 0 mm | - | 386 W/m² | - |
| 1778112751 | 26.67° C | 40% | 4300.7 hPa | 0 mm | - | 375 W/m² | - |
| 1778112447 | 27.22° C | 40% | 4300.6 hPa | 0 mm | - | 416 W/m² | - |
| 1778112142 | 27.78° C | 39% | 4300.6 hPa | 0 mm | - | 411 W/m² | - |
| 1778111840 | 27.78° C | 39% | 4300.6 hPa | 0 mm | - | 430 W/m² | - |
| 1778111535 | 27.78° C | 38% | 4300.5 hPa | 0 mm | - | 433 W/m² | - |
| 1778111232 | 26.67° C | 40% | 4300.5 hPa | 0 mm | - | 470 W/m² | - |
| 1778110930 | 26.67° C | 41% | 4300.6 hPa | 0 mm | - | 478 W/m² | - |
| 1778110627 | 27.78° C | 40% | 4300.6 hPa | 0 mm | - | 494 W/m² | - |
* Rain latest hour (hover to see other rain measurements)
** Current wind speed in m/s (hover to see current wind gust speed)